Terminal Aerodrome Forecast
Issued by NWS

Home | Current Version | Previous Version | Text Only | Print | Product List | Glossary Off
Versions: 1 2 3 4 5 6 7 8 9 10 11 12 13 14 15 16 17 18 19 20 21 22 23 24 25

000
FTUS43 KABR 262324
TAFPIR
TAF
KPIR 262324Z 2700/2724 30012KT P6SM SCT060
     FM270200 VRB05KT P6SM SKC
     FM271700 16012KT P6SM BKN250
      TEMPO 2721/2724 -RA OVC100=

USA.gov is the U.S. government's official web portal to all federal, state and local government web resources and services.